Decoded Metar for EGOV (VALLEY in UK) (IATA:N/A) | Meteo·Mobile Aviation Weather
aviador You're here:

EGOV Decoded Metar

VALLEY in UK
Report Time2018-10-23 00:50:00
UTC Time2018-10-23 01:19:39
Flight Rules mvfr MVFR
Wind270° at 16 kt
W.Decomp.*RWY 31: 12.8 kt HW 9.6 kt LCW
RWY 19: 1.9 kt HW 15.9 kt RCW
W.Rank270° ranks 9
Current wind is above 270° avg. (12.1)
Visibility9999 m
Phenomena:N/A
Clouds:Broken 017 Hf
Expected CloudBase > 1,200 ft AGL from Temp-Dew spread
Ceiling1,700 ft
Temp11°C (ISA -4)
Dew Point08°C (82% RH)
AAT4.8°C
QNH1036 hPa
Density Alt-1,063 ft
Elevation36 ft
Report Wrong Elevation
Raw Report
METAR EGOV 230050Z AUTO 27016KT 9999 BKN017/// 11/08 Q1036=

Extra information for EGOV:More info

Metar Taf Metar & Taf Last 4 Metars F.Rules Stats Wind Profile Meteogram Temp Stats Airport Information Weather charts Add Link Nearby VenuesMetar ALERT Operation Metar Decoded Social comments